createdAt,value
2023-01-06T00:02:18.097Z,97.82
2023-01-06T00:04:51.395Z,96.94
2023-01-06T00:07:26.289Z,97.63
2023-01-06T00:09:59.570Z,96.42
2023-01-06T00:12:33.255Z,96.48
2023-01-06T00:15:08.113Z,96.78
2023-01-06T00:17:42.361Z,96.93
2023-01-06T00:20:15.625Z,97.21
2023-01-06T00:22:50.220Z,97.32
2023-01-06T00:25:23.453Z,88.75
2023-01-06T00:27:56.927Z,81.16
2023-01-06T00:30:30.377Z,77.38
2023-01-06T00:33:04.003Z,75.88
2023-01-06T00:35:37.236Z,74.73
2023-01-06T00:38:14.872Z,71.95
2023-01-06T00:40:48.044Z,71.28
2023-01-06T00:43:21.292Z,69.61
2023-01-06T00:45:54.784Z,68.71
2023-01-06T00:48:28.265Z,68.38
2023-01-06T00:51:02.009Z,67.61
2023-01-06T00:53:36.593Z,68.51
2023-01-06T00:56:10.138Z,67.09
2023-01-06T00:58:43.392Z,67.54
2023-01-06T01:01:16.770Z,66.46
2023-01-06T01:03:50.433Z,67.25
2023-01-06T01:06:23.990Z,68.33
2023-01-06T01:09:00.972Z,66.12
2023-01-06T01:11:52.198Z,64.97
2023-01-06T01:14:26.334Z,65.25
2023-01-06T01:17:00.158Z,65.39
2023-01-06T01:19:33.790Z,64.30
2023-01-06T01:22:07.641Z,64.35
2023-01-06T01:24:42.272Z,63.36
2023-01-06T01:27:16.290Z,62.95
2023-01-06T01:29:49.435Z,63.43
2023-01-06T01:32:22.708Z,63.55
2023-01-06T01:34:55.894Z,63.47
2023-01-06T01:37:31.215Z,63.01
2023-01-06T01:40:07.596Z,62.13
2023-01-06T01:42:41.153Z,62.39
2023-01-06T01:45:23.829Z,62.01
2023-01-06T01:48:01.102Z,61.24
2023-01-06T01:50:37.936Z,60.79
2023-01-06T01:53:15.167Z,60.54
2023-01-06T01:55:51.770Z,60.27
2023-01-06T01:58:28.333Z,60.04
2023-01-06T02:01:01.559Z,59.51
2023-01-06T02:03:35.132Z,59.28
2023-01-06T02:06:14.768Z,59.48
2023-01-06T02:08:55.859Z,59.31
2023-01-06T02:11:34.098Z,58.86
2023-01-06T02:14:11.986Z,58.70
2023-01-06T02:16:58.418Z,58.15
2023-01-06T02:20:09.077Z,57.87
2023-01-06T02:23:24.380Z,57.71
2023-01-06T02:26:31.985Z,57.88
2023-01-06T02:29:42.955Z,57.77
2023-01-06T02:32:33.764Z,57.52
2023-01-06T02:35:22.551Z,57.60
2023-01-06T02:38:06.076Z,57.57
2023-01-06T02:40:56.929Z,57.84
2023-01-06T02:43:40.201Z,58.03
2023-01-06T02:46:24.704Z,58.01
2023-01-06T02:49:11.712Z,58.42
2023-01-06T02:51:49.666Z,59.23
2023-01-06T02:54:32.539Z,59.43
2023-01-06T02:57:13.036Z,59.92
2023-01-06T02:59:52.172Z,60.76
2023-01-06T03:02:28.485Z,60.14
2023-01-06T03:05:06.017Z,60.20
2023-01-06T03:07:40.478Z,60.34
2023-01-06T03:10:17.365Z,61.89
2023-01-06T03:12:55.548Z,61.34
2023-01-06T03:15:29.168Z,61.70
2023-01-06T03:18:02.654Z,61.03
2023-01-06T03:20:37.621Z,61.94
2023-01-06T03:23:10.908Z,62.13
2023-01-06T03:25:44.317Z,62.44
2023-01-06T03:28:17.962Z,62.81
2023-01-06T03:30:56.803Z,62.66
2023-01-06T03:33:39.435Z,62.60
2023-01-06T03:36:24.309Z,63.04
2023-01-06T03:39:04.075Z,63.43
2023-01-06T03:41:59.880Z,63.56
2023-01-06T03:44:43.613Z,63.08
2023-01-06T03:47:25.010Z,62.62
2023-01-06T03:50:07.315Z,62.75
2023-01-06T03:52:46.785Z,61.76
2023-01-06T03:55:24.397Z,61.68
2023-01-06T03:58:00.488Z,62.09
2023-01-06T04:00:37.935Z,61.58
2023-01-06T04:03:14.947Z,61.47
2023-01-06T04:05:48.151Z,61.50
2023-01-06T04:08:23.140Z,61.77
2023-01-06T04:10:56.808Z,61.36
2023-01-06T04:13:30.039Z,61.27
2023-01-06T04:16:03.840Z,61.09
2023-01-06T04:18:37.354Z,60.81
2023-01-06T04:21:10.622Z,60.96
2023-01-06T04:23:45.383Z,60.94
2023-01-06T04:26:19.038Z,60.64
2023-01-06T04:28:52.319Z,60.54
2023-01-06T04:31:25.599Z,60.82
2023-01-06T04:33:58.778Z,60.67
2023-01-06T04:36:32.024Z,60.84
2023-01-06T04:39:06.711Z,60.64
2023-01-06T04:41:40.191Z,60.43
2023-01-06T04:44:13.616Z,60.65
2023-01-06T04:46:46.932Z,60.71
2023-01-06T04:49:20.487Z,60.64
2023-01-06T04:51:54.574Z,60.92
2023-01-06T04:54:29.275Z,61.09
2023-01-06T04:57:02.980Z,61.32
2023-01-06T04:59:36.476Z,61.62
2023-01-06T05:02:09.800Z,61.74
2023-01-06T05:04:47.631Z,62.10
2023-01-06T05:07:21.409Z,62.15
2023-01-06T05:09:56.006Z,62.78
2023-01-06T05:12:39.138Z,63.02
2023-01-06T05:15:13.493Z,63.00
2023-01-06T05:17:46.850Z,63.25
2023-01-06T05:20:20.053Z,63.25
2023-01-06T05:22:53.445Z,63.42
2023-01-06T05:25:28.528Z,63.38
2023-01-06T05:28:01.925Z,63.73
2023-01-06T05:30:35.213Z,63.59
2023-01-06T05:33:08.546Z,63.88
2023-01-06T05:35:41.886Z,64.12
2023-01-06T05:38:15.514Z,63.89
2023-01-06T05:40:54.000Z,64.51
2023-01-06T05:43:28.122Z,64.48
2023-01-06T05:46:05.304Z,64.66
2023-01-06T05:48:39.566Z,64.80
2023-01-06T05:51:15.217Z,64.79
2023-01-06T05:53:49.761Z,64.39
2023-01-06T05:56:25.379Z,64.41
2023-01-06T05:58:58.728Z,64.18
2023-01-06T06:01:33.356Z,64.55
2023-01-06T06:04:06.621Z,64.69
2023-01-06T06:06:39.997Z,64.85
2023-01-06T06:09:13.689Z,64.32
2023-01-06T06:11:54.974Z,64.44
2023-01-06T06:14:28.485Z,64.33
2023-01-06T06:17:02.625Z,64.02
2023-01-06T06:19:35.836Z,63.47
2023-01-06T06:22:10.747Z,63.15
2023-01-06T06:24:44.526Z,62.90
2023-01-06T06:27:19.288Z,62.13
2023-01-06T06:29:52.741Z,62.22
2023-01-06T06:32:26.098Z,62.22
2023-01-06T06:34:59.771Z,62.17
2023-01-06T06:37:33.161Z,62.60
2023-01-06T06:40:08.076Z,62.69
2023-01-06T06:42:42.836Z,62.62
2023-01-06T06:45:16.288Z,62.66
2023-01-06T06:47:55.520Z,62.85
2023-01-06T06:50:29.026Z,62.64
2023-01-06T06:53:02.758Z,62.59
2023-01-06T06:55:36.444Z,62.48
2023-01-06T06:58:11.063Z,62.33
2023-01-06T07:00:44.514Z,62.53
2023-01-06T07:03:17.985Z,61.93
2023-01-06T07:05:53.022Z,61.17
2023-01-06T07:08:27.749Z,61.67
2023-01-06T07:11:01.760Z,60.67
2023-01-06T07:13:36.969Z,60.13
2023-01-06T07:16:11.210Z,59.15
2023-01-06T07:18:45.181Z,58.59
2023-01-06T07:21:18.445Z,58.02
2023-01-06T07:23:51.972Z,56.75
2023-01-06T07:26:25.616Z,56.05
2023-01-06T07:29:00.266Z,56.02
2023-01-06T07:31:33.591Z,55.55
2023-01-06T07:34:07.049Z,55.64
2023-01-06T07:36:40.330Z,54.85
2023-01-06T07:39:13.729Z,54.48
2023-01-06T07:41:47.465Z,54.52
2023-01-06T07:44:22.251Z,54.25
2023-01-06T07:46:55.826Z,53.76
2023-01-06T07:49:29.103Z,54.29
2023-01-06T07:52:02.425Z,53.69
2023-01-06T07:54:36.103Z,53.20
2023-01-06T07:57:09.520Z,53.43
2023-01-06T07:59:44.557Z,53.13
2023-01-06T08:02:18.040Z,52.54
2023-01-06T08:04:51.432Z,52.63
2023-01-06T08:07:24.682Z,52.65
2023-01-06T08:09:57.851Z,52.30
2023-01-06T08:12:31.627Z,51.87
2023-01-06T08:15:08.275Z,51.31
2023-01-06T08:17:43.151Z,51.51
2023-01-06T08:20:16.785Z,51.28
2023-01-06T08:22:50.249Z,51.01
2023-01-06T08:25:23.417Z,51.23
2023-01-06T08:27:58.473Z,50.47
2023-01-06T08:30:39.952Z,50.64
2023-01-06T08:33:13.456Z,50.48
2023-01-06T08:35:47.774Z,50.56
2023-01-06T08:38:21.213Z,49.90
2023-01-06T08:40:54.990Z,49.10
2023-01-06T08:43:29.780Z,48.88
2023-01-06T08:46:07.233Z,48.28
2023-01-06T08:48:40.756Z,48.23
2023-01-06T08:51:17.426Z,47.85
2023-01-06T08:53:51.423Z,47.80
2023-01-06T08:56:27.430Z,47.22
2023-01-06T08:59:02.768Z,46.97
2023-01-06T09:01:37.831Z,47.25
2023-01-06T09:04:12.471Z,47.69
2023-01-06T09:06:47.437Z,47.18
2023-01-06T09:09:21.112Z,47.13
2023-01-06T09:11:56.126Z,46.13
2023-01-06T09:14:30.499Z,45.85
2023-01-06T09:17:05.555Z,46.54
2023-01-06T09:19:38.769Z,45.87
2023-01-06T09:22:12.339Z,45.28
2023-01-06T09:24:45.990Z,45.44
2023-01-06T09:27:19.958Z,45.47
2023-01-06T09:29:53.359Z,45.16
2023-01-06T09:32:28.280Z,45.06
2023-01-06T09:35:01.484Z,44.92
2023-01-06T09:37:34.864Z,45.50
2023-01-06T09:40:11.271Z,46.14
2023-01-06T09:42:55.785Z,45.47
2023-01-06T09:45:38.117Z,44.89
2023-01-06T09:48:18.808Z,44.66
2023-01-06T09:50:55.222Z,44.23
2023-01-06T09:53:33.171Z,44.18
2023-01-06T09:56:10.202Z,44.49
2023-01-06T09:58:48.597Z,43.57
2023-01-06T10:01:30.598Z,43.83
2023-01-06T10:04:05.601Z,43.60
2023-01-06T10:06:44.656Z,42.84
2023-01-06T10:09:27.596Z,43.43
2023-01-06T10:12:14.556Z,43.10
2023-01-06T10:14:59.505Z,43.64
2023-01-06T10:17:49.703Z,43.27
2023-01-06T10:20:45.776Z,43.35
2023-01-06T10:23:39.470Z,43.49
2023-01-06T10:26:14.880Z,43.17
2023-01-06T10:28:53.297Z,43.52
2023-01-06T10:31:33.209Z,42.10
2023-01-06T10:34:18.319Z,41.94
2023-01-06T10:36:58.316Z,42.71
2023-01-06T10:39:33.102Z,42.39
2023-01-06T10:42:36.616Z,42.13
2023-01-06T10:45:12.939Z,41.28
2023-01-06T10:47:46.639Z,41.44
2023-01-06T10:50:21.061Z,41.71
2023-01-06T10:52:56.365Z,41.98
2023-01-06T10:55:53.500Z,41.68
2023-01-06T10:58:35.857Z,41.60
2023-01-06T11:01:11.690Z,41.36
2023-01-06T11:03:47.291Z,40.16
2023-01-06T11:06:27.481Z,40.50
2023-01-06T11:09:08.765Z,40.92
2023-01-06T11:11:54.211Z,39.78
2023-01-06T11:14:31.770Z,40.43
2023-01-06T11:17:08.949Z,40.40
2023-01-06T11:19:43.967Z,40.04
2023-01-06T11:22:35.870Z,39.91
2023-01-06T11:25:29.658Z,40.45
2023-01-06T11:28:18.011Z,40.68
2023-01-06T11:30:53.950Z,40.18
2023-01-06T11:33:29.215Z,39.48
2023-01-06T11:36:10.651Z,39.46
2023-01-06T11:38:47.376Z,39.19
2023-01-06T11:41:32.285Z,40.06
2023-01-06T11:44:10.242Z,39.80
2023-01-06T11:46:50.427Z,39.06
2023-01-06T11:49:27.998Z,39.86
2023-01-06T11:52:04.135Z,39.00
2023-01-06T11:54:39.429Z,38.91
2023-01-06T11:57:33.350Z,38.57
2023-01-06T12:00:23.806Z,38.90
2023-01-06T12:03:07.676Z,38.70
2023-01-06T12:05:48.997Z,39.47
2023-01-06T12:08:26.438Z,39.92
2023-01-06T12:11:06.690Z,39.61
2023-01-06T12:13:45.004Z,39.26
2023-01-06T12:16:38.500Z,39.92
2023-01-06T12:19:17.645Z,39.83
2023-01-06T12:21:52.669Z,39.50
2023-01-06T12:24:27.642Z,38.87
2023-01-06T12:27:05.487Z,38.43
2023-01-06T12:29:40.597Z,39.48
2023-01-06T12:32:19.786Z,38.67
2023-01-06T12:34:55.395Z,39.22
2023-01-06T12:37:34.179Z,38.81
2023-01-06T12:40:16.933Z,39.48
2023-01-06T12:42:57.014Z,39.36
2023-01-06T12:45:41.138Z,39.50
2023-01-06T12:48:24.741Z,38.91
2023-01-06T12:51:02.657Z,38.54
2023-01-06T12:53:40.371Z,38.82
2023-01-06T12:56:36.401Z,38.75
2023-01-06T12:59:18.781Z,39.38
2023-01-06T13:02:01.125Z,39.62
2023-01-06T13:05:14.789Z,39.46
2023-01-06T13:07:56.648Z,39.34
2023-01-06T13:10:38.539Z,39.61
2023-01-06T13:13:36.492Z,40.05
2023-01-06T13:16:18.139Z,40.35
2023-01-06T13:19:04.340Z,39.36
2023-01-06T13:21:39.518Z,38.88
2023-01-06T13:24:38.947Z,39.23
2023-01-06T13:27:47.229Z,39.09
2023-01-06T13:30:43.834Z,39.00
2023-01-06T13:33:37.231Z,39.66
2023-01-06T13:36:47.161Z,40.25
2023-01-06T13:39:24.747Z,40.52
2023-01-06T13:42:02.587Z,40.11
2023-01-06T13:44:39.886Z,39.59
2023-01-06T13:47:17.289Z,39.77
2023-01-06T13:49:51.535Z,40.30
2023-01-06T13:52:29.423Z,40.50
2023-01-06T13:55:26.190Z,40.49
2023-01-06T13:58:36.206Z,40.77
2023-01-06T14:01:10.907Z,40.70
2023-01-06T14:03:44.749Z,40.26
2023-01-06T14:06:45.998Z,40.57
2023-01-06T14:09:22.398Z,41.02
2023-01-06T14:12:09.535Z,41.49
2023-01-06T14:14:43.367Z,42.08
2023-01-06T14:17:31.489Z,41.93
2023-01-06T14:20:05.900Z,41.87
2023-01-06T14:22:39.602Z,41.78
2023-01-06T14:25:24.573Z,41.93
2023-01-06T14:28:22.985Z,42.88
2023-01-06T14:31:48.589Z,42.87
2023-01-06T14:34:22.718Z,42.85
2023-01-06T14:36:57.128Z,43.59
2023-01-06T14:39:33.609Z,43.29
2023-01-06T14:42:17.023Z,43.56
2023-01-06T14:44:53.637Z,44.20
2023-01-06T14:47:32.861Z,44.37
2023-01-06T14:50:13.942Z,44.58
2023-01-06T14:52:54.241Z,44.44
2023-01-06T14:55:30.747Z,44.62
2023-01-06T14:58:05.436Z,44.88
2023-01-06T15:00:46.484Z,44.92
2023-01-06T15:03:23.577Z,45.09
2023-01-06T15:06:11.795Z,46.19
2023-01-06T15:08:44.976Z,45.38
2023-01-06T15:11:25.723Z,45.64
2023-01-06T15:14:00.859Z,45.80
2023-01-06T15:16:37.463Z,45.95
2023-01-06T15:19:16.648Z,46.33
2023-01-06T15:21:53.111Z,46.81
2023-01-06T15:24:31.178Z,47.06
2023-01-06T15:27:07.430Z,47.77
2023-01-06T15:29:50.685Z,47.86
2023-01-06T15:32:27.075Z,47.67
2023-01-06T15:35:01.442Z,48.26
2023-01-06T15:37:35.132Z,48.31
2023-01-06T15:40:11.464Z,48.20
2023-01-06T15:42:45.158Z,48.66
2023-01-06T15:45:28.377Z,48.48
2023-01-06T15:48:09.322Z,48.68
2023-01-06T15:50:42.829Z,48.55
2023-01-06T15:53:24.700Z,48.94
2023-01-06T15:55:57.935Z,49.00
2023-01-06T15:58:35.512Z,49.18
2023-01-06T16:01:15.841Z,49.31
2023-01-06T16:03:52.819Z,49.40
2023-01-06T16:06:28.668Z,49.58
2023-01-06T16:09:35.822Z,49.65
2023-01-06T16:12:18.742Z,50.01
2023-01-06T16:14:52.749Z,50.27
2023-01-06T16:17:31.994Z,50.07
2023-01-06T16:20:08.256Z,50.42
2023-01-06T16:22:49.818Z,50.60
2023-01-06T16:25:25.564Z,50.66
2023-01-06T16:28:00.622Z,51.07
2023-01-06T16:30:36.512Z,51.14
2023-01-06T16:33:42.769Z,51.07
2023-01-06T16:36:18.401Z,50.94
2023-01-06T16:38:51.932Z,51.10
2023-01-06T16:41:25.637Z,51.74
2023-01-06T16:43:59.858Z,51.81
2023-01-06T16:46:33.109Z,51.92
2023-01-06T16:49:11.780Z,52.35
2023-01-06T16:51:48.449Z,52.86
2023-01-06T16:54:22.625Z,53.21
2023-01-06T16:56:56.135Z,53.54
2023-01-06T16:59:36.155Z,53.95
2023-01-06T17:02:14.756Z,53.86
2023-01-06T17:04:49.496Z,54.17
2023-01-06T17:07:25.437Z,54.05
2023-01-06T17:10:00.225Z,54.05
2023-01-06T17:12:51.616Z,54.14
2023-01-06T17:15:25.606Z,54.18
2023-01-06T17:17:59.272Z,54.59
2023-01-06T17:20:34.259Z,54.10
2023-01-06T17:23:07.446Z,54.59
2023-01-06T17:25:43.222Z,54.49
2023-01-06T17:28:22.935Z,54.85
2023-01-06T17:30:56.482Z,54.61
2023-01-06T17:33:30.699Z,54.89
2023-01-06T17:36:07.350Z,55.43
2023-01-06T17:38:42.591Z,55.82
2023-01-06T17:41:17.178Z,55.67
2023-01-06T17:43:50.607Z,55.80
2023-01-06T17:46:30.186Z,55.56
2023-01-06T17:49:12.014Z,55.44
2023-01-06T17:51:48.063Z,56.13
2023-01-06T17:54:37.419Z,55.54
2023-01-06T17:57:14.462Z,55.32
2023-01-06T17:59:50.030Z,55.71
2023-01-06T18:02:39.327Z,55.70
2023-01-06T18:05:49.890Z,55.40
2023-01-06T18:08:26.823Z,55.83
2023-01-06T18:11:23.401Z,55.76
2023-01-06T18:14:02.620Z,56.55
2023-01-06T18:16:36.344Z,56.31
2023-01-06T18:19:24.822Z,57.08
2023-01-06T18:21:58.991Z,56.25
2023-01-06T18:24:38.620Z,56.71
2023-01-06T18:27:18.750Z,57.29
2023-01-06T18:29:52.974Z,57.50
2023-01-06T18:32:31.264Z,57.02
2023-01-06T18:35:10.562Z,57.41
2023-01-06T18:37:44.168Z,57.11
2023-01-06T18:40:23.859Z,57.25
2023-01-06T18:42:57.608Z,57.90
2023-01-06T18:45:35.323Z,57.51
2023-01-06T18:48:16.174Z,57.04
2023-01-06T18:50:52.050Z,57.71
2023-01-06T18:53:28.902Z,57.73
2023-01-06T18:56:05.595Z,58.10
2023-01-06T18:58:46.539Z,58.05
2023-01-06T19:01:22.968Z,58.48
2023-01-06T19:04:04.251Z,58.25
2023-01-06T19:06:42.951Z,58.57
2023-01-06T19:09:25.411Z,58.87
2023-01-06T19:12:26.460Z,58.56
2023-01-06T19:15:14.034Z,59.00
2023-01-06T19:17:48.617Z,58.65
2023-01-06T19:20:25.794Z,58.95
2023-01-06T19:22:59.080Z,59.03
2023-01-06T19:25:35.566Z,59.51
2023-01-06T19:28:18.573Z,60.27
2023-01-06T19:30:53.092Z,59.69
2023-01-06T19:33:42.556Z,60.96
2023-01-06T19:36:36.008Z,61.14
2023-01-06T19:39:22.454Z,61.00
2023-01-06T19:42:00.434Z,60.31
2023-01-06T19:44:36.750Z,60.77
2023-01-06T19:47:19.319Z,61.49
2023-01-06T19:49:55.944Z,61.42
2023-01-06T19:52:34.572Z,61.17
2023-01-06T19:55:26.595Z,62.18
2023-01-06T19:58:03.959Z,62.78
2023-01-06T20:00:48.319Z,61.95
2023-01-06T20:03:30.794Z,62.30
2023-01-06T20:06:05.934Z,62.58
2023-01-06T20:08:41.181Z,63.58
2023-01-06T20:11:14.696Z,62.59
2023-01-06T20:13:48.447Z,63.46
2023-01-06T20:16:23.556Z,63.14
2023-01-06T20:18:56.944Z,63.10
2023-01-06T20:21:30.317Z,63.39
2023-01-06T20:24:05.270Z,63.56
2023-01-06T20:26:39.076Z,63.96
2023-01-06T20:29:12.877Z,64.06
2023-01-06T20:31:48.766Z,64.27
2023-01-06T20:34:22.598Z,63.71
2023-01-06T20:36:56.145Z,64.01
2023-01-06T20:39:30.620Z,64.09
2023-01-06T20:42:05.780Z,64.99
2023-01-06T20:44:39.198Z,64.10
2023-01-06T20:47:13.775Z,64.29
2023-01-06T20:49:47.169Z,64.06
2023-01-06T20:52:20.903Z,64.02
2023-01-06T20:54:54.183Z,64.06
2023-01-06T20:57:27.938Z,64.51
2023-01-06T21:00:01.299Z,64.39
2023-01-06T21:02:36.511Z,64.07
2023-01-06T21:05:10.183Z,65.14
2023-01-06T21:07:43.416Z,64.10
2023-01-06T21:10:16.779Z,64.94
2023-01-06T21:12:53.252Z,64.70
2023-01-06T21:15:27.191Z,64.86
2023-01-06T21:18:02.323Z,65.84
2023-01-06T21:20:35.986Z,65.21
2023-01-06T21:23:10.112Z,65.04
2023-01-06T21:25:43.622Z,65.09
2023-01-06T21:28:17.382Z,66.03
2023-01-06T21:30:50.820Z,65.22
2023-01-06T21:33:25.606Z,66.31
2023-01-06T21:35:59.088Z,66.08
2023-01-06T21:38:34.623Z,65.91
2023-01-06T21:41:21.924Z,66.37
2023-01-06T21:43:55.285Z,65.87
2023-01-06T21:46:28.565Z,66.00
2023-01-06T21:49:03.554Z,65.56
2023-01-06T21:51:37.953Z,66.19
2023-01-06T21:54:11.574Z,66.22
2023-01-06T21:56:44.829Z,66.84
2023-01-06T21:59:18.441Z,67.11
2023-01-06T22:01:51.880Z,67.16
2023-01-06T22:04:26.628Z,67.75
2023-01-06T22:07:03.299Z,67.87
2023-01-06T22:09:37.664Z,67.59
2023-01-06T22:12:14.133Z,68.41
2023-01-06T22:14:51.619Z,68.19
2023-01-06T22:17:25.298Z,68.17
2023-01-06T22:20:00.103Z,68.69
2023-01-06T22:22:35.756Z,68.63
2023-01-06T22:25:09.854Z,68.09
2023-01-06T22:27:43.178Z,68.38
2023-01-06T22:30:16.615Z,67.78
2023-01-06T22:32:50.361Z,67.83
2023-01-06T22:35:25.899Z,68.07
2023-01-06T22:38:00.275Z,67.31
2023-01-06T22:40:33.481Z,67.77
2023-01-06T22:43:07.134Z,69.28
2023-01-06T22:45:40.492Z,68.47
2023-01-06T22:48:13.665Z,68.77
2023-01-06T22:50:48.358Z,68.73
2023-01-06T22:53:21.893Z,68.58
2023-01-06T22:55:59.246Z,69.25
2023-01-06T22:58:33.389Z,69.00
2023-01-06T23:01:07.967Z,68.71
2023-01-06T23:03:41.535Z,69.23
2023-01-06T23:06:16.707Z,68.53
2023-01-06T23:09:00.118Z,68.45
2023-01-06T23:11:36.936Z,68.90
2023-01-06T23:14:12.452Z,68.40
2023-01-06T23:16:46.412Z,69.19
2023-01-06T23:19:20.002Z,68.31
2023-01-06T23:21:54.587Z,69.23
2023-01-06T23:24:27.795Z,69.47
2023-01-06T23:27:01.070Z,69.25
2023-01-06T23:29:34.412Z,69.29
2023-01-06T23:32:07.692Z,70.09
2023-01-06T23:34:41.113Z,69.46
2023-01-06T23:37:16.049Z,69.64
2023-01-06T23:39:49.801Z,69.49
2023-01-06T23:42:22.980Z,70.13
2023-01-06T23:44:56.189Z,69.81
2023-01-06T23:47:29.491Z,70.80
2023-01-06T23:50:02.620Z,70.77
2023-01-06T23:52:37.571Z,71.99
2023-01-06T23:55:11.388Z,71.37
2023-01-06T23:57:44.726Z,71.10
